sensor_id;sensor_type;location;lat;lon;timestamp;temperature;humidity
37998;DHT22;24079;51.824;4.682;2023-07-31T00:01:18;17.70;99.90
37998;DHT22;24079;51.824;4.682;2023-07-31T00:03:45;17.70;99.90
37998;DHT22;24079;51.824;4.682;2023-07-31T00:06:10;17.70;99.90
37998;DHT22;24079;51.824;4.682;2023-07-31T00:08:36;17.70;99.90
37998;DHT22;24079;51.824;4.682;2023-07-31T00:11:01;17.70;99.90
37998;DHT22;24079;51.824;4.682;2023-07-31T00:13:27;17.70;99.90
37998;DHT22;24079;51.824;4.682;2023-07-31T00:15:53;17.70;99.90
37998;DHT22;24079;51.824;4.682;2023-07-31T00:18:19;17.70;99.90
37998;DHT22;24079;51.824;4.682;2023-07-31T00:20:44;17.70;99.90
37998;DHT22;24079;51.824;4.682;2023-07-31T00:23:13;17.70;99.90
37998;DHT22;24079;51.824;4.682;2023-07-31T00:25:39;17.70;99.90
37998;DHT22;24079;51.824;4.682;2023-07-31T00:28:05;17.70;99.90
37998;DHT22;24079;51.824;4.682;2023-07-31T00:30:31;17.70;99.90
37998;DHT22;24079;51.824;4.682;2023-07-31T00:32:57;17.60;99.90
37998;DHT22;24079;51.824;4.682;2023-07-31T00:35:23;17.70;99.90
37998;DHT22;24079;51.824;4.682;2023-07-31T00:37:49;17.70;99.90
37998;DHT22;24079;51.824;4.682;2023-07-31T00:40:15;17.70;99.90
37998;DHT22;24079;51.824;4.682;2023-07-31T00:42:41;17.70;99.90
37998;DHT22;24079;51.824;4.682;2023-07-31T00:45:08;17.70;99.90
37998;DHT22;24079;51.824;4.682;2023-07-31T00:47:34;17.70;99.90
37998;DHT22;24079;51.824;4.682;2023-07-31T00:50:00;17.70;99.90
37998;DHT22;24079;51.824;4.682;2023-07-31T00:52:27;17.70;99.90
37998;DHT22;24079;51.824;4.682;2023-07-31T00:54:53;17.80;99.90
37998;DHT22;24079;51.824;4.682;2023-07-31T00:57:19;17.80;99.90
37998;DHT22;24079;51.824;4.682;2023-07-31T00:59:45;17.80;99.90
37998;DHT22;24079;51.824;4.682;2023-07-31T01:02:12;17.80;99.90
37998;DHT22;24079;51.824;4.682;2023-07-31T01:04:38;17.70;99.90
37998;DHT22;24079;51.824;4.682;2023-07-31T01:07:22;17.70;99.90
37998;DHT22;24079;51.824;4.682;2023-07-31T01:12:24;17.60;99.90
37998;DHT22;24079;51.824;4.682;2023-07-31T01:15:10;17.60;99.90
37998;DHT22;24079;51.824;4.682;2023-07-31T01:17:39;17.60;99.90
37998;DHT22;24079;51.824;4.682;2023-07-31T01:20:23;17.60;99.90
37998;DHT22;24079;51.824;4.682;2023-07-31T01:28:20;17.50;99.90
37998;DHT22;24079;51.824;4.682;2023-07-31T01:30:49;17.50;99.90
37998;DHT22;24079;51.824;4.682;2023-07-31T01:33:16;17.60;99.90
37998;DHT22;24079;51.824;4.682;2023-07-31T01:35:44;17.60;99.90
37998;DHT22;24079;51.824;4.682;2023-07-31T01:38:11;17.50;99.90
37998;DHT22;24079;51.824;4.682;2023-07-31T01:40:40;17.50;99.90
37998;DHT22;24079;51.824;4.682;2023-07-31T01:43:07;17.60;99.90
37998;DHT22;24079;51.824;4.682;2023-07-31T01:45:33;17.60;99.90
37998;DHT22;24079;51.824;4.682;2023-07-31T01:47:59;17.60;99.90
37998;DHT22;24079;51.824;4.682;2023-07-31T01:50:25;17.50;99.90
37998;DHT22;24079;51.824;4.682;2023-07-31T01:52:51;17.50;99.90
37998;DHT22;24079;51.824;4.682;2023-07-31T01:55:17;17.50;99.90
37998;DHT22;24079;51.824;4.682;2023-07-31T01:57:43;17.50;99.90
37998;DHT22;24079;51.824;4.682;2023-07-31T02:00:10;17.50;99.90
37998;DHT22;24079;51.824;4.682;2023-07-31T02:02:35;17.50;99.90
37998;DHT22;24079;51.824;4.682;2023-07-31T02:05:01;17.50;99.90
37998;DHT22;24079;51.824;4.682;2023-07-31T02:07:27;17.50;99.90
37998;DHT22;24079;51.824;4.682;2023-07-31T02:09:52;17.50;99.90
37998;DHT22;24079;51.824;4.682;2023-07-31T02:12:19;17.60;99.90
37998;DHT22;24079;51.824;4.682;2023-07-31T02:14:44;17.50;99.90
37998;DHT22;24079;51.824;4.682;2023-07-31T02:17:10;17.50;99.90
37998;DHT22;24079;51.824;4.682;2023-07-31T02:19:36;17.50;99.90
37998;DHT22;24079;51.824;4.682;2023-07-31T02:22:01;17.50;99.90
37998;DHT22;24079;51.824;4.682;2023-07-31T02:24:27;17.50;99.90
37998;DHT22;24079;51.824;4.682;2023-07-31T02:26:53;17.50;99.90
37998;DHT22;24079;51.824;4.682;2023-07-31T02:29:19;17.50;99.90
37998;DHT22;24079;51.824;4.682;2023-07-31T02:31:44;17.50;99.90
37998;DHT22;24079;51.824;4.682;2023-07-31T02:34:10;17.50;99.90
37998;DHT22;24079;51.824;4.682;2023-07-31T02:36:35;17.50;99.90
37998;DHT22;24079;51.824;4.682;2023-07-31T02:39:01;17.50;99.90
37998;DHT22;24079;51.824;4.682;2023-07-31T02:41:27;17.50;99.90
37998;DHT22;24079;51.824;4.682;2023-07-31T02:43:52;17.40;99.90
37998;DHT22;24079;51.824;4.682;2023-07-31T02:46:19;17.40;99.90
37998;DHT22;24079;51.824;4.682;2023-07-31T02:48:45;17.50;99.90
37998;DHT22;24079;51.824;4.682;2023-07-31T02:51:10;17.40;99.90
37998;DHT22;24079;51.824;4.682;2023-07-31T02:53:36;17.50;99.90
37998;DHT22;24079;51.824;4.682;2023-07-31T02:56:02;17.40;99.90
37998;DHT22;24079;51.824;4.682;2023-07-31T02:58:27;17.40;99.90
37998;DHT22;24079;51.824;4.682;2023-07-31T03:00:53;17.40;99.90
37998;DHT22;24079;51.824;4.682;2023-07-31T03:03:19;17.50;99.90
37998;DHT22;24079;51.824;4.682;2023-07-31T03:05:44;17.50;99.90
37998;DHT22;24079;51.824;4.682;2023-07-31T03:08:10;17.40;99.90
37998;DHT22;24079;51.824;4.682;2023-07-31T03:10:36;17.40;99.90
37998;DHT22;24079;51.824;4.682;2023-07-31T03:13:02;17.40;99.90
37998;DHT22;24079;51.824;4.682;2023-07-31T03:15:28;17.50;99.90
37998;DHT22;24079;51.824;4.682;2023-07-31T03:17:54;17.40;99.90
37998;DHT22;24079;51.824;4.682;2023-07-31T03:20:20;17.40;99.90
37998;DHT22;24079;51.824;4.682;2023-07-31T03:22:46;17.40;99.90
37998;DHT22;24079;51.824;4.682;2023-07-31T03:25:12;17.40;99.90
37998;DHT22;24079;51.824;4.682;2023-07-31T03:27:38;17.40;99.90
37998;DHT22;24079;51.824;4.682;2023-07-31T03:30:04;17.40;99.90
37998;DHT22;24079;51.824;4.682;2023-07-31T03:32:29;17.50;99.90
37998;DHT22;24079;51.824;4.682;2023-07-31T03:34:55;17.50;99.90
37998;DHT22;24079;51.824;4.682;2023-07-31T03:37:21;17.40;99.90
37998;DHT22;24079;51.824;4.682;2023-07-31T03:39:46;17.40;99.90
37998;DHT22;24079;51.824;4.682;2023-07-31T03:42:12;17.40;99.90
37998;DHT22;24079;51.824;4.682;2023-07-31T03:44:37;17.40;99.90
37998;DHT22;24079;51.824;4.682;2023-07-31T03:47:03;17.40;99.90
37998;DHT22;24079;51.824;4.682;2023-07-31T03:49:29;17.30;99.90
37998;DHT22;24079;51.824;4.682;2023-07-31T03:51:55;17.20;99.90
37998;DHT22;24079;51.824;4.682;2023-07-31T03:54:23;17.20;99.90
37998;DHT22;24079;51.824;4.682;2023-07-31T03:56:49;17.20;99.90
37998;DHT22;24079;51.824;4.682;2023-07-31T03:59:15;17.20;99.90
37998;DHT22;24079;51.824;4.682;2023-07-31T04:01:40;17.20;99.90
37998;DHT22;24079;51.824;4.682;2023-07-31T04:07:28;17.10;99.90
37998;DHT22;24079;51.824;4.682;2023-07-31T04:09:55;17.10;99.90
37998;DHT22;24079;51.824;4.682;2023-07-31T04:12:21;17.10;99.90
37998;DHT22;24079;51.824;4.682;2023-07-31T04:14:46;17.10;99.90
37998;DHT22;24079;51.824;4.682;2023-07-31T04:17:12;17.10;99.90
37998;DHT22;24079;51.824;4.682;2023-07-31T04:19:37;17.00;99.90
37998;DHT22;24079;51.824;4.682;2023-07-31T04:22:04;17.00;99.90
37998;DHT22;24079;51.824;4.682;2023-07-31T04:24:30;17.10;99.90
37998;DHT22;24079;51.824;4.682;2023-07-31T04:26:56;17.10;99.90
37998;DHT22;24079;51.824;4.682;2023-07-31T04:29:22;17.00;99.90
37998;DHT22;24079;51.824;4.682;2023-07-31T04:31:48;16.90;99.90
37998;DHT22;24079;51.824;4.682;2023-07-31T04:34:15;16.90;99.90
37998;DHT22;24079;51.824;4.682;2023-07-31T04:36:40;16.90;99.90
37998;DHT22;24079;51.824;4.682;2023-07-31T04:39:06;16.90;99.90
37998;DHT22;24079;51.824;4.682;2023-07-31T04:41:32;16.90;99.90
37998;DHT22;24079;51.824;4.682;2023-07-31T04:43:57;17.00;99.90
37998;DHT22;24079;51.824;4.682;2023-07-31T04:46:23;17.00;99.90
37998;DHT22;24079;51.824;4.682;2023-07-31T04:48:49;16.90;99.90
37998;DHT22;24079;51.824;4.682;2023-07-31T04:51:15;17.00;99.90
37998;DHT22;24079;51.824;4.682;2023-07-31T04:53:41;16.90;99.90
37998;DHT22;24079;51.824;4.682;2023-07-31T04:56:07;16.90;99.90
37998;DHT22;24079;51.824;4.682;2023-07-31T04:58:33;16.90;99.90
37998;DHT22;24079;51.824;4.682;2023-07-31T05:00:59;16.90;99.90
37998;DHT22;24079;51.824;4.682;2023-07-31T05:03:25;16.90;99.90
37998;DHT22;24079;51.824;4.682;2023-07-31T05:05:51;16.90;99.90
37998;DHT22;24079;51.824;4.682;2023-07-31T05:08:17;16.90;99.90
37998;DHT22;24079;51.824;4.682;2023-07-31T05:10:44;16.90;99.90
37998;DHT22;24079;51.824;4.682;2023-07-31T05:13:10;16.80;99.90
37998;DHT22;24079;51.824;4.682;2023-07-31T05:15:36;16.80;99.90
37998;DHT22;24079;51.824;4.682;2023-07-31T05:18:01;16.80;99.90
37998;DHT22;24079;51.824;4.682;2023-07-31T05:20:27;16.80;99.90
37998;DHT22;24079;51.824;4.682;2023-07-31T05:22:53;16.80;99.90
37998;DHT22;24079;51.824;4.682;2023-07-31T05:25:19;16.80;99.90
37998;DHT22;24079;51.824;4.682;2023-07-31T05:27:44;16.80;99.90
37998;DHT22;24079;51.824;4.682;2023-07-31T05:30:10;16.80;99.90
37998;DHT22;24079;51.824;4.682;2023-07-31T05:32:36;16.80;99.90
37998;DHT22;24079;51.824;4.682;2023-07-31T05:35:02;16.80;99.90
37998;DHT22;24079;51.824;4.682;2023-07-31T05:37:28;16.80;99.90
37998;DHT22;24079;51.824;4.682;2023-07-31T05:39:54;16.80;99.90
37998;DHT22;24079;51.824;4.682;2023-07-31T05:42:20;16.80;99.90
37998;DHT22;24079;51.824;4.682;2023-07-31T05:44:47;16.90;99.90
37998;DHT22;24079;51.824;4.682;2023-07-31T05:47:12;16.90;99.90
37998;DHT22;24079;51.824;4.682;2023-07-31T05:49:38;16.90;99.90
37998;DHT22;24079;51.824;4.682;2023-07-31T05:52:04;16.90;99.90
37998;DHT22;24079;51.824;4.682;2023-07-31T05:54:31;16.90;99.90
37998;DHT22;24079;51.824;4.682;2023-07-31T05:56:57;17.00;99.90
37998;DHT22;24079;51.824;4.682;2023-07-31T05:59:23;17.00;99.90
37998;DHT22;24079;51.824;4.682;2023-07-31T06:01:48;17.00;99.90
37998;DHT22;24079;51.824;4.682;2023-07-31T06:04:14;17.00;99.90
37998;DHT22;24079;51.824;4.682;2023-07-31T06:06:39;17.00;99.90
37998;DHT22;24079;51.824;4.682;2023-07-31T06:09:05;17.00;99.90
37998;DHT22;24079;51.824;4.682;2023-07-31T06:11:31;17.00;99.90
37998;DHT22;24079;51.824;4.682;2023-07-31T06:13:58;17.10;99.90
37998;DHT22;24079;51.824;4.682;2023-07-31T06:16:24;17.10;99.90
37998;DHT22;24079;51.824;4.682;2023-07-31T06:18:51;17.10;99.90
37998;DHT22;24079;51.824;4.682;2023-07-31T06:21:17;17.10;99.90
37998;DHT22;24079;51.824;4.682;2023-07-31T06:23:43;17.10;99.90
37998;DHT22;24079;51.824;4.682;2023-07-31T06:26:09;17.10;99.90
37998;DHT22;24079;51.824;4.682;2023-07-31T06:28:35;17.20;99.90
37998;DHT22;24079;51.824;4.682;2023-07-31T06:31:00;17.20;99.90
37998;DHT22;24079;51.824;4.682;2023-07-31T06:33:27;17.20;99.90
37998;DHT22;24079;51.824;4.682;2023-07-31T06:35:54;17.20;99.90
37998;DHT22;24079;51.824;4.682;2023-07-31T06:38:24;17.20;99.90
37998;DHT22;24079;51.824;4.682;2023-07-31T06:40:51;17.20;99.90
37998;DHT22;24079;51.824;4.682;2023-07-31T06:43:17;17.20;99.90
37998;DHT22;24079;51.824;4.682;2023-07-31T06:45:43;17.30;99.90
37998;DHT22;24079;51.824;4.682;2023-07-31T06:48:09;17.30;99.90
37998;DHT22;24079;51.824;4.682;2023-07-31T06:50:35;17.20;99.90
37998;DHT22;24079;51.824;4.682;2023-07-31T06:53:01;17.30;99.90
37998;DHT22;24079;51.824;4.682;2023-07-31T06:55:28;17.30;99.90
37998;DHT22;24079;51.824;4.682;2023-07-31T06:57:55;17.40;99.90
37998;DHT22;24079;51.824;4.682;2023-07-31T07:00:22;17.40;99.90
37998;DHT22;24079;51.824;4.682;2023-07-31T07:02:48;17.40;99.90
37998;DHT22;24079;51.824;4.682;2023-07-31T07:05:16;17.30;99.90
37998;DHT22;24079;51.824;4.682;2023-07-31T07:07:42;17.40;99.90
37998;DHT22;24079;51.824;4.682;2023-07-31T07:10:09;17.30;99.90
37998;DHT22;24079;51.824;4.682;2023-07-31T07:12:35;17.30;99.90
37998;DHT22;24079;51.824;4.682;2023-07-31T07:15:02;17.40;99.90
37998;DHT22;24079;51.824;4.682;2023-07-31T07:17:30;17.40;99.90
37998;DHT22;24079;51.824;4.682;2023-07-31T07:19:59;17.50;99.90
37998;DHT22;24079;51.824;4.682;2023-07-31T07:22:26;17.50;99.90
37998;DHT22;24079;51.824;4.682;2023-07-31T07:24:53;17.40;99.90
37998;DHT22;24079;51.824;4.682;2023-07-31T07:27:19;17.40;99.90
37998;DHT22;24079;51.824;4.682;2023-07-31T07:29:46;17.50;99.90
37998;DHT22;24079;51.824;4.682;2023-07-31T07:32:12;17.50;99.90
37998;DHT22;24079;51.824;4.682;2023-07-31T07:34:39;17.50;99.90
37998;DHT22;24079;51.824;4.682;2023-07-31T07:37:05;17.40;99.90
37998;DHT22;24079;51.824;4.682;2023-07-31T07:39:31;17.50;99.90
37998;DHT22;24079;51.824;4.682;2023-07-31T07:41:57;17.50;99.90
37998;DHT22;24079;51.824;4.682;2023-07-31T07:44:23;17.50;99.90
37998;DHT22;24079;51.824;4.682;2023-07-31T07:46:49;17.50;99.90
37998;DHT22;24079;51.824;4.682;2023-07-31T07:49:15;17.50;99.90
37998;DHT22;24079;51.824;4.682;2023-07-31T07:51:41;17.60;99.90
37998;DHT22;24079;51.824;4.682;2023-07-31T07:54:07;17.70;99.90
37998;DHT22;24079;51.824;4.682;2023-07-31T07:56:33;17.70;99.90
37998;DHT22;24079;51.824;4.682;2023-07-31T07:58:59;17.70;99.90
37998;DHT22;24079;51.824;4.682;2023-07-31T08:01:25;17.70;99.90
37998;DHT22;24079;51.824;4.682;2023-07-31T08:03:51;17.70;99.90
37998;DHT22;24079;51.824;4.682;2023-07-31T08:06:17;17.70;99.90
37998;DHT22;24079;51.824;4.682;2023-07-31T08:08:42;17.80;99.90
37998;DHT22;24079;51.824;4.682;2023-07-31T08:11:08;17.80;99.90
37998;DHT22;24079;51.824;4.682;2023-07-31T08:13:34;17.70;99.90
37998;DHT22;24079;51.824;4.682;2023-07-31T08:15:59;17.80;99.90
37998;DHT22;24079;51.824;4.682;2023-07-31T08:18:25;17.70;99.90
37998;DHT22;24079;51.824;4.682;2023-07-31T08:20:50;17.80;99.90
37998;DHT22;24079;51.824;4.682;2023-07-31T08:23:16;17.70;99.90
37998;DHT22;24079;51.824;4.682;2023-07-31T08:25:42;17.80;99.90
37998;DHT22;24079;51.824;4.682;2023-07-31T08:28:07;17.80;99.90
37998;DHT22;24079;51.824;4.682;2023-07-31T08:30:33;17.80;99.90
37998;DHT22;24079;51.824;4.682;2023-07-31T08:32:59;17.80;99.90
37998;DHT22;24079;51.824;4.682;2023-07-31T08:35:26;17.80;99.90
37998;DHT22;24079;51.824;4.682;2023-07-31T08:37:54;17.80;99.90
37998;DHT22;24079;51.824;4.682;2023-07-31T08:40:19;17.80;99.90
37998;DHT22;24079;51.824;4.682;2023-07-31T08:42:48;17.80;99.90
37998;DHT22;24079;51.824;4.682;2023-07-31T08:45:15;17.80;99.90
37998;DHT22;24079;51.824;4.682;2023-07-31T08:47:51;17.80;99.90
37998;DHT22;24079;51.824;4.682;2023-07-31T08:50:18;17.90;99.90
37998;DHT22;24079;51.824;4.682;2023-07-31T08:52:46;17.90;99.90
37998;DHT22;24079;51.824;4.682;2023-07-31T08:55:12;17.90;99.90
37998;DHT22;24079;51.824;4.682;2023-07-31T08:57:39;17.80;99.90
37998;DHT22;24079;51.824;4.682;2023-07-31T09:00:06;17.90;99.90
37998;DHT22;24079;51.824;4.682;2023-07-31T09:02:46;17.90;99.90
37998;DHT22;24079;51.824;4.682;2023-07-31T09:05:14;18.00;99.90
37998;DHT22;24079;51.824;4.682;2023-07-31T09:07:42;18.00;99.90
37998;DHT22;24079;51.824;4.682;2023-07-31T09:10:12;18.00;99.90
37998;DHT22;24079;51.824;4.682;2023-07-31T09:12:39;18.00;99.90
37998;DHT22;24079;51.824;4.682;2023-07-31T09:15:06;18.10;99.90
37998;DHT22;24079;51.824;4.682;2023-07-31T09:17:35;18.20;99.90
37998;DHT22;24079;51.824;4.682;2023-07-31T09:20:21;18.30;99.90
37998;DHT22;24079;51.824;4.682;2023-07-31T09:22:48;18.30;99.90
37998;DHT22;24079;51.824;4.682;2023-07-31T09:27:48;18.40;99.90
37998;DHT22;24079;51.824;4.682;2023-07-31T09:30:14;18.40;99.90
37998;DHT22;24079;51.824;4.682;2023-07-31T09:32:40;18.40;99.90
37998;DHT22;24079;51.824;4.682;2023-07-31T09:35:32;18.50;99.90
37998;DHT22;24079;51.824;4.682;2023-07-31T09:38:04;18.50;99.90
37998;DHT22;24079;51.824;4.682;2023-07-31T09:40:35;18.50;99.90
37998;DHT22;24079;51.824;4.682;2023-07-31T09:43:06;18.50;99.90
37998;DHT22;24079;51.824;4.682;2023-07-31T09:45:35;18.60;99.90
37998;DHT22;24079;51.824;4.682;2023-07-31T09:48:07;18.60;99.90
37998;DHT22;24079;51.824;4.682;2023-07-31T09:50:41;18.60;99.90
37998;DHT22;24079;51.824;4.682;2023-07-31T09:53:08;18.60;99.90
37998;DHT22;24079;51.824;4.682;2023-07-31T09:55:36;18.70;99.90
37998;DHT22;24079;51.824;4.682;2023-07-31T09:58:07;18.80;99.90
37998;DHT22;24079;51.824;4.682;2023-07-31T10:00:34;18.90;99.90
37998;DHT22;24079;51.824;4.682;2023-07-31T10:03:09;18.80;99.90
37998;DHT22;24079;51.824;4.682;2023-07-31T10:05:43;18.70;99.90
37998;DHT22;24079;51.824;4.682;2023-07-31T10:08:14;18.70;99.90
37998;DHT22;24079;51.824;4.682;2023-07-31T10:10:45;18.70;99.90
37998;DHT22;24079;51.824;4.682;2023-07-31T10:13:12;18.70;99.90
37998;DHT22;24079;51.824;4.682;2023-07-31T10:15:38;18.70;99.90
37998;DHT22;24079;51.824;4.682;2023-07-31T10:18:06;18.60;99.90
37998;DHT22;24079;51.824;4.682;2023-07-31T10:20:33;18.70;99.90
37998;DHT22;24079;51.824;4.682;2023-07-31T10:23:00;18.70;99.90
37998;DHT22;24079;51.824;4.682;2023-07-31T10:25:27;18.60;99.90
37998;DHT22;24079;51.824;4.682;2023-07-31T10:27:54;18.60;99.90
37998;DHT22;24079;51.824;4.682;2023-07-31T10:30:27;18.60;99.90
37998;DHT22;24079;51.824;4.682;2023-07-31T10:32:56;18.60;99.90
37998;DHT22;24079;51.824;4.682;2023-07-31T10:35:23;18.60;99.90
37998;DHT22;24079;51.824;4.682;2023-07-31T10:37:49;18.60;99.90
37998;DHT22;24079;51.824;4.682;2023-07-31T10:40:27;18.60;99.90
37998;DHT22;24079;51.824;4.682;2023-07-31T10:42:54;18.60;99.90
37998;DHT22;24079;51.824;4.682;2023-07-31T10:50:28;18.60;99.90
37998;DHT22;24079;51.824;4.682;2023-07-31T10:52:56;18.60;99.90
37998;DHT22;24079;51.824;4.682;2023-07-31T10:55:42;18.60;99.90
37998;DHT22;24079;51.824;4.682;2023-07-31T10:58:13;18.60;99.90
37998;DHT22;24079;51.824;4.682;2023-07-31T11:00:41;18.50;99.90
37998;DHT22;24079;51.824;4.682;2023-07-31T11:03:15;18.60;99.90
37998;DHT22;24079;51.824;4.682;2023-07-31T11:08:17;18.60;99.90
37998;DHT22;24079;51.824;4.682;2023-07-31T11:10:45;18.60;99.90
37998;DHT22;24079;51.824;4.682;2023-07-31T11:13:12;18.60;99.90
37998;DHT22;24079;51.824;4.682;2023-07-31T11:15:38;18.60;99.90
37998;DHT22;24079;51.824;4.682;2023-07-31T11:18:04;18.60;99.90
37998;DHT22;24079;51.824;4.682;2023-07-31T11:20:35;18.60;99.90
37998;DHT22;24079;51.824;4.682;2023-07-31T11:23:04;18.60;99.90
37998;DHT22;24079;51.824;4.682;2023-07-31T11:25:32;18.60;99.90
37998;DHT22;24079;51.824;4.682;2023-07-31T11:28:05;18.60;99.90
37998;DHT22;24079;51.824;4.682;2023-07-31T11:30:31;18.60;99.90
37998;DHT22;24079;51.824;4.682;2023-07-31T11:32:57;18.60;99.90
37998;DHT22;24079;51.824;4.682;2023-07-31T11:35:23;18.70;99.90
37998;DHT22;24079;51.824;4.682;2023-07-31T11:37:49;18.60;99.90
37998;DHT22;24079;51.824;4.682;2023-07-31T11:40:15;18.70;99.90
37998;DHT22;24079;51.824;4.682;2023-07-31T11:42:41;18.70;99.90
37998;DHT22;24079;51.824;4.682;2023-07-31T11:45:08;18.60;99.90
37998;DHT22;24079;51.824;4.682;2023-07-31T11:47:36;18.70;99.90
37998;DHT22;24079;51.824;4.682;2023-07-31T11:50:10;18.80;99.90
37998;DHT22;24079;51.824;4.682;2023-07-31T11:52:41;18.90;99.90
37998;DHT22;24079;51.824;4.682;2023-07-31T11:55:09;18.90;99.90
37998;DHT22;24079;51.824;4.682;2023-07-31T11:57:38;19.00;99.90
37998;DHT22;24079;51.824;4.682;2023-07-31T12:00:07;19.00;99.90
37998;DHT22;24079;51.824;4.682;2023-07-31T12:02:35;19.00;99.90
37998;DHT22;24079;51.824;4.682;2023-07-31T12:05:01;19.10;99.90
37998;DHT22;24079;51.824;4.682;2023-07-31T12:07:27;19.00;99.90
37998;DHT22;24079;51.824;4.682;2023-07-31T12:09:56;19.10;99.90
37998;DHT22;24079;51.824;4.682;2023-07-31T12:12:23;19.20;99.90
37998;DHT22;24079;51.824;4.682;2023-07-31T12:14:49;19.30;99.90
37998;DHT22;24079;51.824;4.682;2023-07-31T12:17:19;19.20;99.90
37998;DHT22;24079;51.824;4.682;2023-07-31T12:19:46;19.20;99.90
37998;DHT22;24079;51.824;4.682;2023-07-31T12:22:15;19.20;99.90
37998;DHT22;24079;51.824;4.682;2023-07-31T12:24:43;19.20;99.90
37998;DHT22;24079;51.824;4.682;2023-07-31T12:27:14;19.20;99.90
37998;DHT22;24079;51.824;4.682;2023-07-31T12:29:43;19.20;99.90
37998;DHT22;24079;51.824;4.682;2023-07-31T12:32:23;19.10;99.90
37998;DHT22;24079;51.824;4.682;2023-07-31T12:34:50;19.10;99.90
37998;DHT22;24079;51.824;4.682;2023-07-31T12:37:16;19.20;99.90
37998;DHT22;24079;51.824;4.682;2023-07-31T12:39:42;19.20;99.90
37998;DHT22;24079;51.824;4.682;2023-07-31T12:42:08;19.20;99.90
37998;DHT22;24079;51.824;4.682;2023-07-31T12:44:34;19.30;99.90
37998;DHT22;24079;51.824;4.682;2023-07-31T12:47:00;19.20;99.90
37998;DHT22;24079;51.824;4.682;2023-07-31T12:49:26;19.20;99.90
37998;DHT22;24079;51.824;4.682;2023-07-31T12:51:52;19.20;99.90
37998;DHT22;24079;51.824;4.682;2023-07-31T12:54:19;19.20;99.90
37998;DHT22;24079;51.824;4.682;2023-07-31T12:56:46;19.20;99.90
37998;DHT22;24079;51.824;4.682;2023-07-31T12:59:12;19.20;99.90
37998;DHT22;24079;51.824;4.682;2023-07-31T13:01:38;19.20;99.90
37998;DHT22;24079;51.824;4.682;2023-07-31T13:04:04;19.30;99.90
37998;DHT22;24079;51.824;4.682;2023-07-31T13:06:30;19.30;99.90
37998;DHT22;24079;51.824;4.682;2023-07-31T13:08:56;19.50;99.90
37998;DHT22;24079;51.824;4.682;2023-07-31T13:11:21;19.60;99.90
37998;DHT22;24079;51.824;4.682;2023-07-31T13:13:47;19.70;99.90
37998;DHT22;24079;51.824;4.682;2023-07-31T13:16:12;19.70;99.90
37998;DHT22;24079;51.824;4.682;2023-07-31T13:18:38;19.70;99.90
37998;DHT22;24079;51.824;4.682;2023-07-31T13:21:04;19.70;99.90
37998;DHT22;24079;51.824;4.682;2023-07-31T13:23:30;19.70;99.90
37998;DHT22;24079;51.824;4.682;2023-07-31T13:25:56;19.50;99.90
37998;DHT22;24079;51.824;4.682;2023-07-31T13:28:22;19.50;99.90
37998;DHT22;24079;51.824;4.682;2023-07-31T13:30:47;19.50;99.90
37998;DHT22;24079;51.824;4.682;2023-07-31T13:33:14;19.60;99.90
37998;DHT22;24079;51.824;4.682;2023-07-31T13:35:40;19.60;99.90
37998;DHT22;24079;51.824;4.682;2023-07-31T13:38:06;19.60;99.90
37998;DHT22;24079;51.824;4.682;2023-07-31T13:40:32;19.60;99.90
37998;DHT22;24079;51.824;4.682;2023-07-31T13:42:58;19.50;99.90
37998;DHT22;24079;51.824;4.682;2023-07-31T13:45:25;19.40;99.90
37998;DHT22;24079;51.824;4.682;2023-07-31T13:47:51;19.40;99.90
37998;DHT22;24079;51.824;4.682;2023-07-31T13:50:17;19.40;99.90
37998;DHT22;24079;51.824;4.682;2023-07-31T13:52:45;19.40;99.90
37998;DHT22;24079;51.824;4.682;2023-07-31T13:55:11;19.50;99.90
37998;DHT22;24079;51.824;4.682;2023-07-31T13:57:38;19.40;99.90
37998;DHT22;24079;51.824;4.682;2023-07-31T14:00:04;19.30;99.90
37998;DHT22;24079;51.824;4.682;2023-07-31T14:02:30;19.30;99.90
37998;DHT22;24079;51.824;4.682;2023-07-31T14:04:57;19.40;99.90
37998;DHT22;24079;51.824;4.682;2023-07-31T14:07:23;19.40;99.90
37998;DHT22;24079;51.824;4.682;2023-07-31T14:09:49;19.50;99.90
37998;DHT22;24079;51.824;4.682;2023-07-31T14:12:15;19.50;99.90
37998;DHT22;24079;51.824;4.682;2023-07-31T14:14:41;19.40;99.90
37998;DHT22;24079;51.824;4.682;2023-07-31T14:17:07;19.30;99.90
37998;DHT22;24079;51.824;4.682;2023-07-31T14:19:33;19.30;99.90
37998;DHT22;24079;51.824;4.682;2023-07-31T14:21:59;19.30;99.90
37998;DHT22;24079;51.824;4.682;2023-07-31T14:24:25;19.20;99.90
37998;DHT22;24079;51.824;4.682;2023-07-31T14:26:52;19.20;99.90
37998;DHT22;24079;51.824;4.682;2023-07-31T14:29:18;19.20;99.90
37998;DHT22;24079;51.824;4.682;2023-07-31T14:31:45;19.10;99.90
37998;DHT22;24079;51.824;4.682;2023-07-31T14:34:11;19.10;99.90
37998;DHT22;24079;51.824;4.682;2023-07-31T14:36:37;19.10;99.90
37998;DHT22;24079;51.824;4.682;2023-07-31T14:39:03;19.00;99.90
37998;DHT22;24079;51.824;4.682;2023-07-31T14:41:30;19.00;99.90
37998;DHT22;24079;51.824;4.682;2023-07-31T14:43:56;19.00;99.90
37998;DHT22;24079;51.824;4.682;2023-07-31T14:46:22;19.00;99.90
37998;DHT22;24079;51.824;4.682;2023-07-31T14:48:47;19.00;99.90
37998;DHT22;24079;51.824;4.682;2023-07-31T14:51:13;19.00;99.90
37998;DHT22;24079;51.824;4.682;2023-07-31T14:53:39;19.00;99.90
37998;DHT22;24079;51.824;4.682;2023-07-31T14:56:05;19.00;99.90
37998;DHT22;24079;51.824;4.682;2023-07-31T14:58:31;19.00;99.90
37998;DHT22;24079;51.824;4.682;2023-07-31T15:00:57;19.00;99.90
37998;DHT22;24079;51.824;4.682;2023-07-31T15:03:23;19.00;99.90
37998;DHT22;24079;51.824;4.682;2023-07-31T15:05:50;19.00;99.90
37998;DHT22;24079;51.824;4.682;2023-07-31T15:08:17;18.90;99.90
37998;DHT22;24079;51.824;4.682;2023-07-31T15:10:45;18.90;99.90
37998;DHT22;24079;51.824;4.682;2023-07-31T15:13:11;18.80;99.90
37998;DHT22;24079;51.824;4.682;2023-07-31T15:15:37;18.80;99.90
37998;DHT22;24079;51.824;4.682;2023-07-31T15:18:03;18.80;99.90
37998;DHT22;24079;51.824;4.682;2023-07-31T15:20:29;18.90;99.90
37998;DHT22;24079;51.824;4.682;2023-07-31T15:22:55;18.80;99.90
37998;DHT22;24079;51.824;4.682;2023-07-31T15:25:21;18.80;99.90
37998;DHT22;24079;51.824;4.682;2023-07-31T15:27:47;18.80;99.90
37998;DHT22;24079;51.824;4.682;2023-07-31T15:30:15;18.90;99.90
37998;DHT22;24079;51.824;4.682;2023-07-31T15:32:42;18.80;99.90
37998;DHT22;24079;51.824;4.682;2023-07-31T15:35:11;18.80;99.90
37998;DHT22;24079;51.824;4.682;2023-07-31T15:37:37;18.80;99.90
37998;DHT22;24079;51.824;4.682;2023-07-31T15:40:03;18.70;99.90
37998;DHT22;24079;51.824;4.682;2023-07-31T15:42:29;18.80;99.90
37998;DHT22;24079;51.824;4.682;2023-07-31T15:44:56;18.80;99.90
37998;DHT22;24079;51.824;4.682;2023-07-31T15:47:22;18.70;99.90
37998;DHT22;24079;51.824;4.682;2023-07-31T15:49:48;18.70;99.90